createdAt,value
2023-02-09T00:01:41.177Z,66.00
2023-02-09T00:04:09.586Z,58.60
2023-02-09T00:06:37.474Z,52.70
2023-02-09T00:09:05.575Z,54.00
2023-02-09T00:11:52.276Z,58.80
2023-02-09T00:14:22.068Z,54.70
2023-02-09T00:16:51.582Z,48.60
2023-02-09T00:19:21.082Z,50.60
2023-02-09T00:21:49.297Z,53.70
2023-02-09T00:24:17.191Z,49.10
2023-02-09T00:26:45.118Z,59.00
2023-02-09T00:29:13.659Z,45.60
2023-02-09T00:31:43.540Z,47.40
2023-02-09T00:34:14.472Z,49.30
2023-02-09T00:36:42.416Z,51.80
2023-02-09T00:39:10.529Z,48.20
2023-02-09T00:41:57.253Z,47.80
2023-02-09T00:44:25.304Z,40.50
2023-02-09T00:46:53.449Z,49.60
2023-02-09T00:49:21.519Z,46.80
2023-02-09T00:51:49.477Z,48.00
2023-02-09T00:54:17.576Z,53.70
2023-02-09T00:56:46.954Z,51.90
2023-02-09T00:59:15.558Z,43.90
2023-02-09T01:01:43.602Z,51.90
2023-02-09T01:04:11.627Z,60.80
2023-02-09T01:06:39.748Z,69.80
2023-02-09T01:09:07.815Z,61.30
2023-02-09T01:11:35.830Z,59.50
2023-02-09T01:14:04.728Z,43.60
2023-02-09T01:16:33.099Z,60.40
2023-02-09T01:19:02.751Z,70.60
2023-02-09T01:21:31.155Z,74.20
2023-02-09T01:23:59.628Z,69.50
2023-02-09T01:26:27.939Z,37.30
2023-02-09T01:28:56.286Z,66.50
2023-02-09T01:31:25.950Z,68.90
2023-02-09T01:33:55.772Z,53.00
2023-02-09T01:36:23.883Z,64.60
2023-02-09T01:38:54.929Z,64.90
2023-02-09T01:41:24.148Z,67.00
2023-02-09T01:44:02.702Z,71.60
2023-02-09T01:46:35.779Z,71.70
2023-02-09T01:49:26.941Z,61.50
2023-02-09T01:52:03.602Z,71.60
2023-02-09T01:54:39.147Z,69.40
2023-02-09T01:57:12.388Z,74.10
2023-02-09T01:59:44.348Z,61.00
2023-02-09T02:02:12.812Z,56.50
2023-02-09T02:04:44.309Z,60.40
2023-02-09T02:07:33.425Z,56.10
2023-02-09T02:10:03.040Z,66.90
2023-02-09T02:12:32.739Z,55.30
2023-02-09T02:15:00.748Z,60.40
2023-02-09T02:17:47.664Z,72.30
2023-02-09T02:20:37.531Z,63.50
2023-02-09T02:23:32.495Z,71.30
2023-02-09T02:26:21.603Z,67.40
2023-02-09T02:28:58.557Z,68.60
2023-02-09T02:31:55.180Z,65.50
2023-02-09T02:34:53.354Z,74.60
2023-02-09T02:37:27.248Z,70.70
2023-02-09T02:40:02.825Z,71.10
2023-02-09T02:42:51.768Z,58.60
2023-02-09T02:45:48.436Z,48.30
2023-02-09T02:48:38.358Z,44.30
2023-02-09T02:51:11.717Z,50.80
2023-02-09T02:53:43.561Z,47.00
2023-02-09T02:56:20.926Z,41.50
2023-02-09T02:58:52.259Z,46.10
2023-02-09T03:01:24.868Z,48.20
2023-02-09T03:03:54.798Z,43.50
2023-02-09T03:06:22.797Z,56.70
2023-02-09T03:08:57.283Z,55.50
2023-02-09T03:11:32.309Z,51.70
2023-02-09T03:14:12.974Z,56.70
2023-02-09T03:17:16.605Z,47.00
2023-02-09T03:20:08.669Z,38.70
2023-02-09T03:22:36.589Z,44.50
2023-02-09T03:25:10.605Z,39.90
2023-02-09T03:28:08.582Z,42.00
2023-02-09T03:30:42.269Z,78.20
2023-02-09T03:33:29.682Z,69.90
2023-02-09T03:36:01.403Z,60.90
2023-02-09T03:38:29.727Z,84.20
2023-02-09T03:40:57.706Z,76.70
2023-02-09T03:43:45.541Z,77.40
2023-02-09T03:46:13.569Z,63.00
2023-02-09T03:48:41.529Z,67.80
2023-02-09T03:51:09.503Z,62.90
2023-02-09T03:53:38.212Z,64.10
2023-02-09T03:56:10.041Z,69.60
2023-02-09T03:58:37.967Z,61.20
2023-02-09T04:01:08.482Z,64.50
2023-02-09T04:03:37.687Z,59.80
2023-02-09T04:06:06.174Z,60.60
2023-02-09T04:08:34.342Z,38.80
2023-02-09T04:11:02.401Z,37.00
2023-02-09T04:13:30.320Z,63.20
2023-02-09T04:15:58.249Z,57.30
2023-02-09T04:18:26.367Z,68.20
2023-02-09T04:20:54.331Z,78.40
2023-02-09T04:23:22.508Z,78.30
2023-02-09T04:25:53.482Z,72.80
2023-02-09T04:28:21.594Z,71.20
2023-02-09T04:30:54.622Z,74.00
2023-02-09T04:33:24.410Z,35.60
2023-02-09T04:35:53.553Z,64.40
2023-02-09T04:38:22.593Z,82.40
2023-02-09T04:40:52.506Z,67.70
2023-02-09T04:43:20.987Z,56.30
2023-02-09T04:45:49.164Z,50.20
2023-02-09T04:48:20.230Z,46.70
2023-02-09T04:50:48.286Z,70.30
2023-02-09T04:53:16.579Z,81.80
2023-02-09T04:55:46.446Z,78.00
2023-02-09T04:58:38.143Z,79.20
2023-02-09T05:01:07.622Z,70.60
2023-02-09T05:03:35.789Z,80.10
2023-02-09T05:06:05.288Z,78.60
2023-02-09T05:08:33.442Z,78.70
2023-02-09T05:11:02.289Z,69.90
2023-02-09T05:13:30.487Z,47.70
2023-02-09T05:15:58.856Z,45.00
2023-02-09T05:18:27.094Z,47.60
2023-02-09T05:20:55.367Z,79.60
2023-02-09T05:23:23.432Z,44.00
2023-02-09T05:25:51.760Z,60.10
2023-02-09T05:28:19.928Z,62.90
2023-02-09T05:30:53.781Z,69.20
2023-02-09T05:33:24.344Z,64.60
2023-02-09T05:35:54.011Z,58.70
2023-02-09T05:38:22.744Z,67.40
2023-02-09T05:40:51.149Z,74.10
2023-02-09T05:43:19.484Z,76.30
2023-02-09T05:45:47.688Z,75.60
2023-02-09T05:48:15.913Z,82.40
2023-02-09T05:50:44.367Z,78.20
2023-02-09T05:53:14.433Z,84.70
2023-02-09T05:55:44.674Z,74.30
2023-02-09T05:58:13.068Z,83.70
2023-02-09T06:00:41.308Z,88.90
2023-02-09T06:03:09.472Z,86.10
2023-02-09T06:05:37.758Z,62.30
2023-02-09T06:08:06.428Z,60.30
2023-02-09T06:10:34.791Z,50.20
2023-02-09T06:13:03.256Z,69.60
2023-02-09T06:15:31.467Z,85.90
2023-02-09T06:18:00.008Z,94.10
2023-02-09T06:20:28.368Z,83.70
2023-02-09T06:22:56.395Z,54.70
2023-02-09T06:25:24.578Z,71.80
2023-02-09T06:27:52.792Z,72.70
2023-02-09T06:30:21.280Z,71.60
2023-02-09T06:32:49.421Z,87.70
2023-02-09T06:35:17.799Z,83.20
2023-02-09T06:37:46.208Z,82.50
2023-02-09T06:40:14.561Z,73.10
2023-02-09T06:42:45.570Z,77.40
2023-02-09T06:45:16.427Z,85.40
2023-02-09T06:47:46.355Z,75.10
2023-02-09T06:50:17.307Z,86.40
2023-02-09T06:52:47.023Z,81.20
2023-02-09T06:55:15.677Z,91.50
2023-02-09T06:57:44.081Z,93.10
2023-02-09T07:00:13.963Z,108.00
2023-02-09T07:02:44.089Z,97.70
2023-02-09T07:05:14.466Z,98.80
2023-02-09T07:07:44.256Z,93.60
2023-02-09T07:10:15.612Z,71.80
2023-02-09T07:12:43.925Z,109.70
2023-02-09T07:15:15.085Z,92.80
2023-02-09T07:17:44.420Z,98.70
2023-02-09T07:20:13.074Z,96.40
2023-02-09T07:22:41.466Z,103.90
2023-02-09T07:25:09.994Z,91.70
2023-02-09T07:27:38.188Z,94.50
2023-02-09T07:30:06.962Z,89.70
2023-02-09T07:32:38.445Z,87.70
2023-02-09T07:35:07.200Z,59.90
2023-02-09T07:37:36.234Z,56.00
2023-02-09T07:40:04.709Z,41.20
2023-02-09T07:42:33.098Z,64.50
2023-02-09T07:45:03.167Z,69.20
2023-02-09T07:47:31.757Z,33.40
2023-02-09T07:50:00.410Z,66.70
2023-02-09T07:52:28.852Z,65.80
2023-02-09T07:54:57.294Z,72.30
2023-02-09T07:57:27.650Z,50.20
2023-02-09T07:59:56.151Z,58.60
2023-02-09T08:02:31.394Z,33.20
2023-02-09T08:05:00.969Z,63.80
2023-02-09T08:07:30.205Z,75.30
2023-02-09T08:09:58.558Z,66.00
2023-02-09T08:12:49.087Z,74.30
2023-02-09T08:15:21.397Z,76.00
2023-02-09T08:17:54.074Z,71.50
2023-02-09T08:20:27.131Z,55.80
2023-02-09T08:23:02.026Z,76.80
2023-02-09T08:25:30.581Z,51.20
2023-02-09T08:27:59.501Z,57.70
2023-02-09T08:30:27.855Z,53.90
2023-02-09T08:32:55.984Z,77.40
2023-02-09T08:35:24.281Z,59.90
2023-02-09T08:37:52.752Z,53.80
2023-02-09T08:40:20.838Z,72.50
2023-02-09T08:42:49.163Z,37.60
2023-02-09T08:45:17.412Z,48.60
2023-02-09T08:47:46.181Z,74.30
2023-02-09T08:50:17.717Z,81.40
2023-02-09T08:52:46.338Z,41.80
2023-02-09T08:55:14.720Z,71.80
2023-02-09T08:57:44.611Z,64.50
2023-02-09T09:00:16.005Z,64.00
2023-02-09T09:02:44.238Z,90.80
2023-02-09T09:05:13.107Z,23.70
2023-02-09T09:07:42.010Z,60.90
2023-02-09T09:10:10.919Z,43.50
2023-02-09T09:12:39.169Z,58.60
2023-02-09T09:15:07.972Z,65.50
2023-02-09T09:17:36.222Z,55.50
2023-02-09T09:20:05.106Z,55.30
2023-02-09T09:22:33.508Z,37.00
2023-02-09T09:25:02.290Z,27.70
2023-02-09T09:27:33.468Z,58.60
2023-02-09T09:30:05.779Z,60.90
2023-02-09T09:32:34.309Z,39.40
2023-02-09T09:35:03.782Z,61.10
2023-02-09T09:37:33.002Z,37.70
2023-02-09T09:40:01.411Z,44.90
2023-02-09T09:42:40.800Z,55.30
2023-02-09T09:45:21.064Z,47.10
2023-02-09T09:47:49.935Z,38.60
2023-02-09T09:50:32.314Z,34.90
2023-02-09T09:53:25.633Z,25.80
2023-02-09T09:55:59.390Z,28.80
2023-02-09T09:58:29.026Z,40.90
2023-02-09T10:00:57.796Z,28.40
2023-02-09T10:03:27.062Z,32.60
2023-02-09T10:06:02.212Z,30.80
2023-02-09T10:08:33.224Z,25.10
2023-02-09T10:11:11.972Z,34.80
2023-02-09T10:13:56.943Z,30.80
2023-02-09T10:16:34.700Z,16.60
2023-02-09T10:19:07.096Z,13.00
2023-02-09T10:21:36.508Z,32.60
2023-02-09T10:24:13.629Z,40.80
2023-02-09T10:26:43.223Z,31.60
2023-02-09T10:29:11.384Z,28.20
2023-02-09T10:31:44.938Z,26.90
2023-02-09T10:34:24.991Z,26.70
2023-02-09T10:36:56.752Z,30.70
2023-02-09T10:39:34.600Z,27.20
2023-02-09T10:42:16.679Z,25.80
2023-02-09T10:44:49.792Z,14.50
2023-02-09T10:47:20.925Z,25.80
2023-02-09T10:50:02.956Z,25.70
2023-02-09T10:52:34.636Z,25.50
2023-02-09T10:55:17.230Z,30.40
2023-02-09T10:57:46.199Z,20.80
2023-02-09T11:00:17.674Z,25.80
2023-02-09T11:02:54.522Z,22.60
2023-02-09T11:05:22.865Z,27.80
2023-02-09T11:07:58.019Z,20.70
2023-02-09T11:10:32.742Z,23.10
2023-02-09T11:13:05.364Z,16.40
2023-02-09T11:15:46.148Z,24.70
2023-02-09T11:18:25.823Z,32.40
2023-02-09T11:21:06.400Z,28.30
2023-02-09T11:24:00.816Z,32.40
2023-02-09T11:26:43.023Z,23.70
2023-02-09T11:29:29.968Z,24.70
2023-02-09T11:31:58.136Z,26.10
2023-02-09T11:34:29.593Z,24.60
2023-02-09T11:37:22.797Z,20.30
2023-02-09T11:40:06.414Z,16.90
2023-02-09T11:42:46.367Z,30.00
2023-02-09T11:45:29.196Z,22.40
2023-02-09T11:48:04.471Z,26.40
2023-02-09T11:50:58.071Z,31.70
2023-02-09T11:53:47.254Z,30.30
2023-02-09T11:56:18.260Z,36.70
2023-02-09T11:59:21.946Z,32.90
2023-02-09T12:02:02.407Z,22.00
2023-02-09T12:04:49.554Z,20.30
2023-02-09T12:07:40.913Z,23.90
2023-02-09T12:10:09.963Z,27.50
2023-02-09T12:12:52.088Z,24.30
2023-02-09T12:15:27.912Z,21.90
2023-02-09T12:18:06.679Z,27.60
2023-02-09T12:20:56.895Z,38.00
2023-02-09T12:23:42.647Z,27.00
2023-02-09T12:26:17.136Z,24.00
2023-02-09T12:28:47.803Z,24.60
2023-02-09T12:31:26.143Z,23.40
2023-02-09T12:34:11.234Z,22.70
2023-02-09T12:37:01.539Z,25.80
2023-02-09T12:39:30.057Z,21.10
2023-02-09T12:42:01.473Z,24.70
2023-02-09T12:44:30.275Z,29.80
2023-02-09T12:46:58.510Z,24.60
2023-02-09T12:49:30.237Z,35.80
2023-02-09T12:52:01.377Z,40.40
2023-02-09T12:54:32.276Z,28.30
2023-02-09T12:57:15.942Z,25.80
2023-02-09T12:59:50.427Z,22.80
2023-02-09T13:02:38.574Z,26.40
2023-02-09T13:05:17.693Z,35.10
2023-02-09T13:07:52.506Z,29.50
2023-02-09T13:10:42.985Z,37.10
2023-02-09T13:13:11.298Z,29.50
2023-02-09T13:16:05.668Z,13.30
2023-02-09T13:18:59.551Z,27.20
2023-02-09T13:21:57.842Z,27.00
2023-02-09T13:24:42.024Z,33.10
2023-02-09T13:27:22.252Z,23.00
2023-02-09T13:29:54.033Z,30.40
2023-02-09T13:32:54.806Z,29.50
2023-02-09T13:35:29.496Z,30.30
2023-02-09T13:38:00.078Z,35.90
2023-02-09T13:40:31.760Z,24.50
2023-02-09T13:43:17.809Z,40.60
2023-02-09T13:45:49.242Z,41.40
2023-02-09T13:48:33.108Z,28.30
2023-02-09T13:51:04.122Z,28.90
2023-02-09T13:53:32.517Z,27.20
2023-02-09T13:56:00.923Z,28.60
2023-02-09T13:58:35.442Z,27.30
2023-02-09T14:01:09.586Z,35.40
2023-02-09T14:03:57.118Z,28.30
2023-02-09T14:06:52.957Z,32.30
2023-02-09T14:09:25.640Z,27.10
2023-02-09T14:11:59.311Z,28.30
2023-02-09T14:14:52.422Z,28.80
2023-02-09T14:17:32.087Z,28.90
2023-02-09T14:20:00.520Z,23.00
2023-02-09T14:22:36.369Z,22.00
2023-02-09T14:25:13.787Z,27.30
2023-02-09T14:27:47.325Z,15.40
2023-02-09T14:30:23.272Z,22.50
2023-02-09T14:32:53.894Z,26.20
2023-02-09T14:35:27.431Z,21.80
2023-02-09T14:37:58.897Z,22.60
2023-02-09T14:40:27.266Z,16.80
2023-02-09T14:43:27.376Z,21.40
2023-02-09T14:46:01.719Z,23.30
2023-02-09T14:48:31.774Z,20.80
2023-02-09T14:51:11.210Z,29.70
2023-02-09T14:53:43.836Z,26.80
2023-02-09T14:56:25.608Z,20.20
2023-02-09T14:58:54.824Z,22.20
2023-02-09T15:01:23.296Z,42.70
2023-02-09T15:03:51.841Z,31.20
2023-02-09T15:06:20.537Z,19.10
2023-02-09T15:08:49.257Z,29.20
2023-02-09T15:11:42.682Z,24.90
2023-02-09T15:14:11.966Z,20.20
2023-02-09T15:16:41.025Z,20.60
2023-02-09T15:19:16.522Z,23.60
2023-02-09T15:21:50.663Z,23.20
2023-02-09T15:24:25.042Z,27.50
2023-02-09T15:26:53.953Z,24.20
2023-02-09T15:29:22.404Z,22.10
2023-02-09T15:31:50.907Z,28.20
2023-02-09T15:34:19.573Z,19.60
2023-02-09T15:36:48.038Z,27.30
2023-02-09T15:39:28.407Z,22.00
2023-02-09T15:42:16.011Z,25.70
2023-02-09T15:45:03.072Z,23.90
2023-02-09T15:47:49.856Z,20.70
2023-02-09T15:50:17.915Z,22.00
2023-02-09T15:52:46.497Z,25.80
2023-02-09T15:55:23.164Z,26.70
2023-02-09T15:57:53.458Z,24.90
2023-02-09T16:00:27.716Z,22.30
2023-02-09T16:02:58.748Z,22.40
2023-02-09T16:05:29.370Z,27.70
2023-02-09T16:07:59.711Z,26.90
2023-02-09T16:10:30.296Z,22.00
2023-02-09T16:12:58.994Z,26.10
2023-02-09T16:15:27.631Z,29.60
2023-02-09T16:17:55.796Z,27.10
2023-02-09T16:20:26.019Z,24.60
2023-02-09T16:22:56.783Z,21.90
2023-02-09T16:25:26.669Z,34.30
2023-02-09T16:27:56.709Z,16.30
2023-02-09T16:30:26.895Z,21.30
2023-02-09T16:32:56.072Z,32.00
2023-02-09T16:35:25.599Z,23.40
2023-02-09T16:37:54.145Z,13.80
2023-02-09T16:40:24.086Z,32.90
2023-02-09T16:42:52.949Z,19.60
2023-02-09T16:45:22.757Z,21.40
2023-02-09T16:47:55.087Z,30.60
2023-02-09T16:50:32.999Z,26.40
2023-02-09T16:53:04.643Z,38.80
2023-02-09T16:55:35.673Z,47.20
2023-02-09T16:58:05.332Z,38.50
2023-02-09T17:00:37.955Z,40.40
2023-02-09T17:03:14.326Z,38.90
2023-02-09T17:05:47.552Z,32.20
2023-02-09T17:08:19.653Z,16.20
2023-02-09T17:10:51.899Z,32.90
2023-02-09T17:13:23.850Z,32.40
2023-02-09T17:15:56.302Z,29.60
2023-02-09T17:18:31.904Z,27.40
2023-02-09T17:21:03.512Z,33.10
2023-02-09T17:23:31.805Z,31.20
2023-02-09T17:26:00.468Z,20.10
2023-02-09T17:28:30.060Z,19.90
2023-02-09T17:31:01.450Z,25.80
2023-02-09T17:33:35.875Z,32.70
2023-02-09T17:36:25.363Z,21.80
2023-02-09T17:38:53.517Z,32.80
2023-02-09T17:41:37.127Z,30.90
2023-02-09T17:44:22.316Z,34.00
2023-02-09T17:46:52.269Z,41.50
2023-02-09T17:49:20.446Z,35.40
2023-02-09T17:51:49.519Z,36.60
2023-02-09T17:54:20.223Z,38.60
2023-02-09T17:56:48.361Z,45.60
2023-02-09T17:59:19.951Z,48.60
2023-02-09T18:01:55.333Z,34.70
2023-02-09T18:04:27.017Z,37.60
2023-02-09T18:06:57.502Z,56.20
2023-02-09T18:09:26.129Z,61.10
2023-02-09T18:12:04.599Z,51.90
2023-02-09T18:14:33.934Z,64.20
2023-02-09T18:17:02.689Z,53.40
2023-02-09T18:19:31.538Z,48.00
2023-02-09T18:22:01.753Z,50.70
2023-02-09T18:24:34.067Z,37.30
2023-02-09T18:27:05.726Z,63.20
2023-02-09T18:29:33.981Z,50.90
2023-02-09T18:32:03.199Z,53.00
2023-02-09T18:34:31.418Z,62.10
2023-02-09T18:36:59.445Z,41.10
2023-02-09T18:39:27.627Z,54.80
2023-02-09T18:41:56.167Z,40.70
2023-02-09T18:44:29.337Z,48.10
2023-02-09T18:47:00.725Z,48.60
2023-02-09T18:49:29.585Z,55.10
2023-02-09T18:51:59.016Z,50.60
2023-02-09T18:54:28.993Z,36.90
2023-02-09T18:56:57.321Z,58.30
2023-02-09T18:59:32.550Z,43.40
2023-02-09T19:04:29.258Z,44.60
2023-02-09T19:06:57.352Z,33.00
2023-02-09T19:09:25.786Z,48.50
2023-02-09T19:11:53.649Z,50.90
2023-02-09T19:14:40.031Z,43.90
2023-02-09T19:17:19.979Z,53.80
2023-02-09T19:19:49.061Z,63.50
2023-02-09T19:22:21.496Z,50.20
2023-02-09T19:24:52.997Z,60.70
2023-02-09T19:27:21.450Z,57.40
2023-02-09T19:29:53.515Z,60.60
2023-02-09T19:32:22.035Z,50.70
2023-02-09T19:34:50.068Z,60.10
2023-02-09T19:37:20.996Z,52.90
2023-02-09T19:40:05.116Z,70.80
2023-02-09T19:42:33.597Z,72.80
2023-02-09T19:45:01.665Z,72.90
2023-02-09T19:47:29.886Z,67.90
2023-02-09T19:49:58.793Z,81.90
2023-02-09T19:52:28.041Z,66.40
2023-02-09T19:54:57.772Z,72.40
2023-02-09T19:57:26.178Z,64.50
2023-02-09T19:59:54.377Z,80.30
2023-02-09T20:02:22.304Z,69.80
2023-02-09T20:04:50.593Z,62.70
2023-02-09T20:07:18.676Z,65.10
2023-02-09T20:09:46.932Z,65.00
2023-02-09T20:12:15.210Z,54.30
2023-02-09T20:14:43.142Z,64.90
2023-02-09T20:17:11.402Z,64.40
2023-02-09T20:19:39.580Z,50.20
2023-02-09T20:22:07.534Z,49.50
2023-02-09T20:24:35.987Z,47.20
2023-02-09T20:27:04.505Z,50.40
2023-02-09T20:29:32.399Z,49.90
2023-02-09T20:32:01.753Z,56.20
2023-02-09T20:34:30.023Z,67.80
2023-02-09T20:36:58.055Z,67.10
2023-02-09T20:39:26.058Z,58.60
2023-02-09T20:42:16.617Z,67.90
2023-02-09T20:45:03.149Z,52.90
2023-02-09T20:47:31.450Z,55.30
2023-02-09T20:50:00.417Z,57.80
2023-02-09T20:52:29.298Z,54.10
2023-02-09T20:54:57.536Z,50.30
2023-02-09T20:57:29.675Z,58.80
2023-02-09T20:59:59.313Z,51.90
2023-02-09T21:02:28.213Z,55.30
2023-02-09T21:04:57.441Z,53.70
2023-02-09T21:07:25.643Z,50.70
2023-02-09T21:09:54.961Z,58.60
2023-02-09T21:12:23.093Z,59.40
2023-02-09T21:14:51.470Z,54.60
2023-02-09T21:17:20.924Z,48.80
2023-02-09T21:19:48.956Z,55.00
2023-02-09T21:22:17.514Z,57.50
2023-02-09T21:24:45.493Z,53.80
2023-02-09T21:27:14.262Z,56.60
2023-02-09T21:29:42.485Z,64.40
2023-02-09T21:32:11.193Z,56.10
2023-02-09T21:34:39.258Z,43.10
2023-02-09T21:37:10.241Z,75.30
2023-02-09T21:39:39.096Z,66.50
2023-02-09T21:42:25.928Z,63.80
2023-02-09T21:44:56.986Z,71.90
2023-02-09T21:47:36.636Z,77.00
2023-02-09T21:50:07.406Z,61.70
2023-02-09T21:52:35.370Z,63.30
2023-02-09T21:55:04.802Z,57.90
2023-02-09T21:57:32.820Z,62.30
2023-02-09T22:00:05.481Z,58.50
2023-02-09T22:02:33.986Z,68.90
2023-02-09T22:05:02.609Z,63.70
2023-02-09T22:07:31.450Z,69.20
2023-02-09T22:09:59.369Z,61.60
2023-02-09T22:12:27.564Z,66.90
2023-02-09T22:14:55.590Z,71.10
2023-02-09T22:17:23.623Z,57.20
2023-02-09T22:19:51.513Z,77.90
2023-02-09T22:22:19.462Z,71.40
2023-02-09T22:24:47.543Z,74.20
2023-02-09T22:27:15.618Z,77.70
2023-02-09T22:29:44.492Z,63.10
2023-02-09T22:32:12.499Z,66.60
2023-02-09T22:34:40.555Z,71.90
2023-02-09T22:37:08.487Z,70.80
2023-02-09T22:39:36.464Z,68.10
2023-02-09T22:42:04.743Z,68.90
2023-02-09T22:44:33.709Z,38.40
2023-02-09T22:47:01.615Z,64.40
2023-02-09T22:49:29.611Z,76.10
2023-02-09T22:51:57.555Z,68.50
2023-02-09T22:54:25.469Z,62.90
2023-02-09T22:56:53.456Z,62.10
2023-02-09T22:59:21.603Z,71.60
2023-02-09T23:01:49.730Z,65.60
2023-02-09T23:04:17.884Z,64.40
2023-02-09T23:06:46.499Z,58.30
2023-02-09T23:09:15.538Z,65.10
2023-02-09T23:11:44.462Z,61.50
2023-02-09T23:14:13.727Z,69.30
2023-02-09T23:16:43.751Z,65.60
2023-02-09T23:19:14.648Z,59.30
2023-02-09T23:21:44.973Z,69.00
2023-02-09T23:24:16.077Z,50.30
2023-02-09T23:26:44.315Z,63.30
2023-02-09T23:29:14.278Z,60.40
2023-02-09T23:31:43.422Z,63.70
2023-02-09T23:34:20.116Z,73.40
2023-02-09T23:36:48.549Z,55.40
2023-02-09T23:39:20.016Z,68.10
2023-02-09T23:41:48.428Z,72.70
2023-02-09T23:44:16.373Z,61.00
2023-02-09T23:46:44.924Z,66.50
2023-02-09T23:49:13.030Z,66.00
2023-02-09T23:51:41.079Z,55.20
2023-02-09T23:54:10.791Z,55.60
2023-02-09T23:56:39.956Z,60.40
2023-02-09T23:59:13.133Z,47.10
